Time;durP1;ratioP1;P1;durP2;ratioP2;P2;SDS_P1;SDS_P2;PMS_P1;PMS_P2;Temp;Humidity;BMP_temperature;BMP_pressure;BME280_temperature;BME280_humidity;BME280_pressure;Samples;Min_cycle;Max_cycle;Signal;HPM_P1;HPM_P2
2021/04/07 00:00:37;;;;;;;3.80;3.27;;;1.80;7.30;;;;;;5068710;28;20254;-67
2021/04/07 00:03:07;;;;;;;3.72;3.00;;;1.90;6.40;;;;;;5069360;28;20205;-68
2021/04/07 00:05:40;;;;;;;4.47;3.20;;;1.90;8.60;;;;;;5051045;28;20205;-67
2021/04/07 00:08:06;;;;;;;4.85;3.53;;;1.80;8.60;;;;;;5068788;28;20193;-68
2021/04/07 00:10:35;;;;;;;4.70;3.65;;;1.80;8.30;;;;;;5067729;28;20262;-68
2021/04/07 00:13:01;;;;;;;3.83;3.03;;;1.80;13.00;;;;;;5073984;28;20188;-68
2021/04/07 00:15:28;;;;;;;3.90;3.30;;;1.90;6.60;;;;;;5070184;28;20180;-68
2021/04/07 00:17:54;;;;;;;4.85;3.55;;;1.80;7.50;;;;;;5068271;28;20565;-68
2021/04/07 00:20:23;;;;;;;4.30;3.90;;;1.80;10.40;;;;;;5068212;28;20215;-68
2021/04/07 00:22:49;;;;;;;4.97;3.28;;;1.80;10.20;;;;;;5068660;28;20276;-67
2021/04/07 00:25:16;;;;;;;4.22;3.58;;;1.90;10.00;;;;;;5069567;28;20171;-68
2021/04/07 00:27:43;;;;;;;5.50;4.15;;;1.90;3.40;;;;;;5068539;28;20266;-67
2021/04/07 00:30:11;;;;;;;3.83;3.30;;;1.90;3.50;;;;;;5067842;28;20543;-67
2021/04/07 00:32:37;;;;;;;3.83;3.38;;;1.90;1.00;;;;;;5068841;28;20499;-68
2021/04/07 00:35:04;;;;;;;4.40;4.00;;;1.90;2.60;;;;;;5067766;28;20410;-67
2021/04/07 00:37:30;;;;;;;5.45;3.90;;;1.90;1.70;;;;;;5068552;28;20468;-67
2021/04/07 00:39:55;;;;;;;3.97;3.47;;;1.90;3.30;;;;;;5068456;28;20608;-68
2021/04/07 00:42:21;;;;;;;3.73;3.20;;;1.90;1.00;;;;;;5069616;28;20530;-68
2021/04/07 00:44:47;;;;;;;4.67;3.70;;;1.90;2.50;;;;;;5069121;28;20183;-68
2021/04/07 00:47:16;;;;;;;7.20;3.55;;;1.90;4.10;;;;;;5067893;28;20604;-68
2021/04/07 00:49:42;;;;;;;4.95;3.40;;;2.00;1.00;;;;;;5044201;28;20193;-68
2021/04/07 00:52:08;;;;;;;7.60;4.00;;;2.00;1.00;;;;;;5069023;28;20196;-68
2021/04/07 00:54:34;;;;;;;5.13;3.90;;;2.00;1.00;;;;;;5073427;28;20187;-67
2021/04/07 00:56:59;;;;;;;5.27;3.80;;;2.00;1.00;;;;;;5068211;28;20315;-66
2021/04/07 00:59:25;;;;;;;3.93;3.53;;;2.00;1.00;;;;;;5048902;28;20204;-67
2021/04/07 01:01:51;;;;;;;4.20;3.10;;;2.00;1.00;;;;;;5062354;28;20192;-67
2021/04/07 01:04:18;;;;;;;4.10;3.70;;;2.00;1.00;;;;;;5069233;28;20263;-67
2021/04/07 01:06:46;;;;;;;4.28;3.10;;;2.00;1.00;;;;;;5067375;28;20986;-67
2021/04/07 01:09:11;;;;;;;5.80;3.40;;;2.00;1.00;;;;;;5067058;28;20286;-66
2021/04/07 01:11:37;;;;;;;6.30;3.27;;;2.00;1.00;;;;;;5068003;28;20214;-67
2021/04/07 01:14:03;;;;;;;3.87;3.47;;;2.00;1.00;;;;;;5068979;28;20268;-67
2021/04/07 01:16:29;;;;;;;4.22;3.60;;;2.00;1.00;;;;;;5067545;28;20293;-67
2021/04/07 01:18:55;;;;;;;3.50;3.20;;;2.00;1.00;;;;;;5067470;28;20285;-69
2021/04/07 01:21:20;;;;;;;3.73;3.30;;;2.00;1.00;;;;;;5066742;28;20532;-67
2021/04/07 01:23:49;;;;;;;3.40;3.10;;;2.00;1.00;;;;;;5068018;28;20170;-68
2021/04/07 01:26:15;;;;;;;3.92;3.50;;;1.90;1.00;;;;;;5050576;28;20198;-67
2021/04/07 01:28:41;;;;;;;3.90;3.47;;;1.90;1.00;;;;;;5053580;28;20658;-67
2021/04/07 01:31:08;;;;;;;3.92;3.25;;;1.90;1.00;;;;;;5072229;28;20190;-68
2021/04/07 01:33:34;;;;;;;3.50;3.03;;;1.90;1.00;;;;;;5070002;28;20191;-68
2021/04/07 01:36:00;;;;;;;5.20;3.10;;;1.90;1.00;;;;;;5072920;28;20178;-68
2021/04/07 01:38:25;;;;;;;4.10;3.30;;;1.90;1.00;;;;;;5072916;28;20206;-68
2021/04/07 01:40:53;;;;;;;4.23;3.07;;;2.00;1.00;;;;;;5075656;28;20429;-67
2021/04/07 01:43:19;;;;;;;3.78;3.03;;;2.10;1.00;;;;;;5071746;28;20914;-67
2021/04/07 01:45:46;;;;;;;6.07;3.35;;;2.00;1.00;;;;;;5072152;28;20193;-67
2021/04/07 01:48:13;;;;;;;3.67;3.20;;;2.00;1.00;;;;;;5074325;28;20699;-68
2021/04/07 01:50:46;;;;;;;3.00;2.70;;;2.00;1.00;;;;;;5069848;28;20204;-68
2021/04/07 01:53:13;;;;;;;3.30;2.70;;;2.00;1.00;;;;;;5071446;28;20187;-68
2021/04/07 01:55:38;;;;;;;3.03;2.67;;;2.00;1.00;;;;;;5079125;28;20183;-67
2021/04/07 01:58:04;;;;;;;3.40;3.10;;;1.90;1.00;;;;;;5072174;28;20201;-68
2021/04/07 02:00:30;;;;;;;4.63;3.00;;;1.90;1.00;;;;;;5070042;28;20196;-68
2021/04/07 02:02:55;;;;;;;4.20;2.50;;;1.90;1.00;;;;;;5071409;28;20949;-67
2021/04/07 02:05:21;;;;;;;3.90;2.83;;;2.00;1.00;;;;;;5070208;28;20186;-67
2021/04/07 02:07:47;;;;;;;2.90;2.30;;;2.00;1.00;;;;;;5071994;28;20186;-67
2021/04/07 02:10:13;;;;;;;3.30;2.80;;;1.90;1.00;;;;;;5071032;28;20182;-68
2021/04/07 02:12:39;;;;;;;3.42;2.50;;;2.00;1.00;;;;;;5072394;28;20191;-68
2021/04/07 02:15:14;;;;;;;4.32;2.65;;;2.00;1.00;;;;;;5070881;28;20667;-68
2021/04/07 02:17:39;;;;;;;5.72;2.90;;;2.10;1.00;;;;;;5071750;28;20237;-68
2021/04/07 02:20:07;;;;;;;2.57;2.37;;;2.10;99.90;;;;;;5069877;28;20227;-68
2021/04/07 02:22:33;;;;;;;2.60;2.40;;;2.00;99.90;;;;;;5073891;28;20194;-68
2021/04/07 02:24:59;;;;;;;2.50;2.20;;;2.00;99.90;;;;;;5071295;28;20201;-69
2021/04/07 02:27:25;;;;;;;4.37;2.47;;;2.00;99.90;;;;;;5069917;28;20437;-69
2021/04/07 02:29:55;;;;;;;2.90;2.70;;;2.00;99.90;;;;;;5071166;28;20594;-69
2021/04/07 02:32:23;;;;;;;2.70;2.50;;;2.00;99.90;;;;;;5069842;28;20184;-69
2021/04/07 02:34:49;;;;;;;4.63;2.85;;;2.00;99.90;;;;;;5071607;28;20282;-69
2021/04/07 02:37:16;;;;;;;3.92;3.40;;;2.00;1.00;;;;;;5070104;28;20294;-69
2021/04/07 02:39:42;;;;;;;4.15;3.25;;;2.00;1.00;;;;;;5070266;28;20534;-68
2021/04/07 02:42:08;;;;;;;3.80;2.78;;;2.00;1.00;;;;;;5070657;28;20260;-68
2021/04/07 02:44:34;;;;;;;3.85;3.05;;;2.00;1.00;;;;;;5071243;28;20192;-69
2021/04/07 02:47:00;;;;;;;3.08;2.63;;;2.00;1.00;;;;;;5070457;28;20245;-69
2021/04/07 02:49:26;;;;;;;4.43;3.30;;;2.00;1.00;;;;;;5069591;28;20187;-68
2021/04/07 02:51:52;;;;;;;4.63;3.70;;;2.00;1.00;;;;;;5070428;28;20178;-68
2021/04/07 02:54:18;;;;;;;4.00;3.27;;;2.00;1.00;;;;;;5070940;28;20191;-68
2021/04/07 02:56:43;;;;;;;5.80;3.20;;;1.90;1.00;;;;;;5069301;28;20430;-68
2021/04/07 02:59:09;;;;;;;4.97;3.47;;;2.00;1.00;;;;;;5070336;28;20638;-69
2021/04/07 03:01:34;;;;;;;6.50;3.80;;;2.00;1.00;;;;;;5068773;28;20200;-69
2021/04/07 03:04:00;;;;;;;4.33;3.43;;;2.00;1.00;;;;;;5070571;28;20189;-69
2021/04/07 03:06:26;;;;;;;5.17;3.73;;;2.10;1.00;;;;;;5069611;28;20190;-69
2021/04/07 03:08:51;;;;;;;5.60;3.57;;;2.00;1.00;;;;;;5070679;28;20859;-69
2021/04/07 03:11:17;;;;;;;6.17;4.20;;;2.00;1.00;;;;;;5069780;28;20509;-69
2021/04/07 03:13:43;;;;;;;7.03;3.77;;;2.00;1.00;;;;;;5069767;28;20219;-69
2021/04/07 03:16:09;;;;;;;4.77;4.00;;;2.00;1.00;;;;;;5070186;28;20182;-69
2021/04/07 03:18:34;;;;;;;6.10;3.80;;;2.00;1.00;;;;;;5069772;28;20476;-69
2021/04/07 03:21:00;;;;;;;4.63;3.77;;;1.90;1.00;;;;;;5074542;28;20201;-69
2021/04/07 03:23:25;;;;;;;5.00;3.60;;;2.00;1.00;;;;;;5081754;28;20188;-68
2021/04/07 03:25:51;;;;;;;4.43;3.70;;;2.00;1.00;;;;;;5069342;28;20192;-69
2021/04/07 03:28:16;;;;;;;3.80;3.43;;;1.90;1.00;;;;;;5070189;28;20185;-68
2021/04/07 03:30:51;;;;;;;4.30;3.47;;;1.90;1.00;;;;;;5077068;28;20717;-68
2021/04/07 03:33:18;;;;;;;8.25;3.63;;;1.90;1.00;;;;;;5068581;28;20534;-68
2021/04/07 03:35:43;;;;;;;6.40;4.10;;;1.90;1.00;;;;;;5069157;28;20194;-68
2021/04/07 03:38:09;;;;;;;3.97;3.23;;;1.90;1.00;;;;;;5069672;28;20207;-67
2021/04/07 03:40:35;;;;;;;4.63;3.50;;;1.90;1.00;;;;;;5068520;28;21024;-68
2021/04/07 03:43:07;;;;;;;7.50;3.70;;;1.80;1.00;;;;;;5069487;28;20352;-68
2021/04/07 03:45:33;;;;;;;6.50;3.92;;;1.80;1.00;;;;;;5080736;28;20804;-69
2021/04/07 03:47:59;;;;;;;6.27;4.37;;;1.80;1.00;;;;;;5068928;28;20179;-68
2021/04/07 03:50:25;;;;;;;4.65;3.90;;;1.80;1.00;;;;;;5068076;28;20442;-67
2021/04/07 03:52:50;;;;;;;5.03;4.33;;;1.60;1.00;;;;;;5069389;28;20509;-68
2021/04/07 03:55:16;;;;;;;6.07;4.33;;;1.70;1.00;;;;;;5069357;28;20186;-69
2021/04/07 03:57:41;;;;;;;5.30;3.83;;;1.60;1.00;;;;;;5068463;28;20203;-68
2021/04/07 04:00:08;;;;;;;6.90;4.93;;;1.50;1.00;;;;;;5072274;28;20186;-69
2021/04/07 04:02:33;;;;;;;5.32;4.35;;;1.50;1.00;;;;;;5068625;28;20210;-69
2021/04/07 04:04:59;;;;;;;5.40;4.07;;;1.50;1.00;;;;;;5067776;28;20214;-68
2021/04/07 04:07:24;;;;;;;6.73;4.93;;;1.50;3.20;;;;;;5070125;28;20297;-68
2021/04/07 04:09:50;;;;;;;7.40;4.70;;;1.50;5.90;;;;;;5068007;28;20219;-72
2021/04/07 04:12:15;;;;;;;6.50;4.97;;;1.50;1.00;;;;;;5069231;28;20234;-71
2021/04/07 04:14:41;;;;;;;8.57;5.13;;;1.50;1.00;;;;;;5067436;28;20186;-72
2021/04/07 04:17:06;;;;;;;5.73;4.27;;;1.50;1.00;;;;;;5058990;28;20207;-72
2021/04/07 04:19:32;;;;;;;6.77;4.83;;;1.50;1.00;;;;;;5059318;28;20265;-73
2021/04/07 04:21:57;;;;;;;7.50;6.73;;;1.40;1.00;;;;;;5060337;28;20178;-72
2021/04/07 04:24:23;;;;;;;7.30;5.53;;;1.40;1.00;;;;;;5060579;28;21105;-72
2021/04/07 04:26:48;;;;;;;10.37;5.20;;;1.50;1.00;;;;;;5041027;28;20192;-72
2021/04/07 04:29:14;;;;;;;6.30;4.60;;;1.50;1.00;;;;;;5060183;28;20227;-71
2021/04/07 04:31:39;;;;;;;7.90;4.93;;;1.60;1.00;;;;;;5059609;28;20400;-71
2021/04/07 04:34:05;;;;;;;6.73;5.17;;;1.60;1.00;;;;;;5059813;28;20260;-71
2021/04/07 04:36:30;;;;;;;8.43;5.50;;;1.60;1.00;;;;;;5060343;28;20175;-72
2021/04/07 04:38:56;;;;;;;7.70;5.00;;;1.60;1.00;;;;;;5058048;28;20211;-72
2021/04/07 04:41:21;;;;;;;9.10;5.67;;;1.60;1.00;;;;;;5059901;28;20981;-72
2021/04/07 04:43:47;;;;;;;5.97;5.00;;;1.60;3.60;;;;;;5065920;28;20187;-73
2021/04/07 04:46:12;;;;;;;6.73;5.07;;;1.70;1.00;;;;;;5068690;28;20282;-73
2021/04/07 04:48:38;;;;;;;7.77;5.30;;;1.70;1.00;;;;;;5069179;28;20187;-73
2021/04/07 04:51:04;;;;;;;9.23;5.30;;;1.70;1.00;;;;;;5069081;28;20324;-73
2021/04/07 04:53:29;;;;;;;7.17;5.77;;;1.60;1.00;;;;;;5077944;28;20194;-72
2021/04/07 04:55:55;;;;;;;11.80;6.37;;;1.70;1.00;;;;;;5073553;28;20467;-71
2021/04/07 04:58:20;;;;;;;8.50;5.53;;;1.70;1.00;;;;;;5068235;28;20265;-72
2021/04/07 05:00:46;;;;;;;8.17;5.87;;;1.70;1.00;;;;;;5068463;28;20175;-72
2021/04/07 05:03:11;;;;;;;7.67;5.17;;;1.60;1.00;;;;;;5071833;28;20928;-73
2021/04/07 05:05:37;;;;;;;9.07;6.00;;;1.70;1.00;;;;;;5072940;28;20183;-73
2021/04/07 05:08:03;;;;;;;8.60;5.87;;;1.60;1.00;;;;;;5073256;28;20590;-73
2021/04/07 05:10:28;;;;;;;10.47;6.30;;;1.70;1.00;;;;;;5072369;28;20175;-73
2021/04/07 05:12:54;;;;;;;8.70;6.30;;;1.70;2.70;;;;;;5076027;28;20184;-70
2021/04/07 05:15:19;;;;;;;9.80;6.93;;;1.70;1.00;;;;;;5073232;28;20213;-70
2021/04/07 05:17:45;;;;;;;8.60;6.00;;;1.80;1.00;;;;;;5054238;28;20198;-71
2021/04/07 05:20:11;;;;;;;8.60;6.20;;;1.70;1.00;;;;;;5073283;28;20193;-73
2021/04/07 05:22:37;;;;;;;9.15;5.88;;;1.80;1.00;;;;;;5080160;28;20183;-72
2021/04/07 05:25:03;;;;;;;10.33;6.57;;;1.80;1.00;;;;;;5073399;28;20234;-73
2021/04/07 05:27:29;;;;;;;8.82;5.90;;;1.80;1.00;;;;;;5072576;28;20498;-73
2021/04/07 05:29:54;;;;;;;9.17;6.50;;;1.70;1.00;;;;;;5072302;28;20181;-73
2021/04/07 05:32:20;;;;;;;9.20;6.40;;;1.70;4.70;;;;;;5072560;28;20202;-73
2021/04/07 05:34:46;;;;;;;9.70;5.90;;;1.70;6.60;;;;;;5073297;28;20171;-73
2021/04/07 05:37:12;;;;;;;8.45;6.00;;;1.80;1.00;;;;;;5072743;28;20195;-73
2021/04/07 05:39:37;;;;;;;11.67;7.47;;;1.90;1.00;;;;;;5072356;28;21008;-72
2021/04/07 05:42:03;;;;;;;11.93;7.10;;;1.90;1.00;;;;;;5076634;28;20216;-71
2021/04/07 05:44:29;;;;;;;8.65;6.40;;;2.00;1.00;;;;;;5086563;28;20172;-72
2021/04/07 05:46:57;;;;;;;7.60;5.87;;;2.10;1.00;;;;;;5084197;28;20178;-71
2021/04/07 05:49:24;;;;;;;12.25;6.85;;;2.20;1.00;;;;;;5067262;28;20598;-72
2021/04/07 05:51:50;;;;;;;10.05;6.45;;;2.30;1.00;;;;;;5071735;28;20187;-73
2021/04/07 05:54:15;;;;;;;8.50;5.90;;;2.40;1.00;;;;;;5072426;28;20827;-73
2021/04/07 05:56:41;;;;;;;9.87;7.10;;;2.30;1.00;;;;;;5072768;28;20169;-73
2021/04/07 05:59:06;;;;;;;14.30;9.80;;;2.30;1.00;;;;;;5071403;28;20207;-71
2021/04/07 06:01:32;;;;;;;9.33;6.47;;;2.30;1.00;;;;;;5071249;28;20176;-73
2021/04/07 06:03:58;;;;;;;9.30;6.53;;;2.20;1.00;;;;;;5075518;28;20187;-73
2021/04/07 06:06:23;;;;;;;10.77;6.53;;;2.20;1.00;;;;;;5079482;28;20181;-72
2021/04/07 06:08:49;;;;;;;9.90;7.07;;;2.20;1.00;;;;;;5071095;28;20665;-72
2021/04/07 06:11:16;;;;;;;10.80;6.60;;;2.20;1.00;;;;;;5071897;28;20230;-72
2021/04/07 06:13:42;;;;;;;13.07;8.18;;;2.20;1.00;;;;;;5071317;28;20239;-72
2021/04/07 06:16:08;;;;;;;12.67;7.40;;;2.10;3.40;;;;;;5071832;28;20212;-72
2021/04/07 06:18:33;;;;;;;10.20;7.23;;;2.20;13.90;;;;;;5075804;28;20217;-72
2021/04/07 06:20:59;;;;;;;12.43;7.87;;;2.10;18.60;;;;;;5071835;28;20809;-72
2021/04/07 06:23:24;;;;;;;14.00;8.20;;;2.10;14.20;;;;;;5071065;28;20186;-71
2021/04/07 06:25:50;;;;;;;13.87;7.60;;;2.20;16.40;;;;;;5072378;28;20475;-72
2021/04/07 06:28:16;;;;;;;10.47;7.13;;;2.20;11.40;;;;;;5071171;28;20340;-73
2021/04/07 06:30:43;;;;;;;13.30;7.30;;;2.20;1.40;;;;;;5071285;28;20191;-71
2021/04/07 06:33:14;;;;;;;12.07;7.78;;;2.20;1.00;;;;;;5071249;28;20631;-71
2021/04/07 06:35:42;;;;;;;10.68;7.20;;;2.20;1.00;;;;;;5058627;28;20198;-72
2021/04/07 06:38:08;;;;;;;13.23;6.72;;;2.20;1.00;;;;;;5070891;28;20700;-73
2021/04/07 06:40:34;;;;;;;12.30;7.87;;;2.20;1.00;;;;;;5077993;28;20264;-71
2021/04/07 06:43:01;;;;;;;14.87;8.00;;;2.30;1.00;;;;;;5080118;28;20203;-72
2021/04/07 06:45:28;;;;;;;12.05;7.43;;;2.30;1.00;;;;;;5071240;28;20468;-72
2021/04/07 06:47:55;;;;;;;11.10;7.30;;;2.30;9.30;;;;;;5070592;28;20191;-72
2021/04/07 06:50:22;;;;;;;9.00;6.40;;;2.30;11.50;;;;;;5071256;28;20349;-71
2021/04/07 06:52:48;;;;;;;12.70;7.30;;;2.30;5.80;;;;;;5069621;28;20183;-71
2021/04/07 06:55:17;;;;;;;12.55;6.50;;;2.30;1.00;;;;;;5071510;28;20183;-72
2021/04/07 06:57:44;;;;;;;9.70;6.10;;;2.10;2.80;;;;;;5070376;28;20282;-70
2021/04/07 07:00:11;;;;;;;10.50;6.53;;;2.10;14.20;;;;;;5071305;28;20172;-71
2021/04/07 07:02:36;;;;;;;10.55;7.07;;;2.10;29.40;;;;;;5070520;28;20232;-72
2021/04/07 07:05:03;;;;;;;11.53;6.87;;;2.10;33.20;;;;;;5071484;28;20960;-70
2021/04/07 07:07:29;;;;;;;9.90;6.45;;;2.20;30.30;;;;;;5070670;28;20175;-70
2021/04/07 07:09:56;;;;;;;10.13;6.25;;;2.20;33.90;;;;;;5071521;28;20329;-72
2021/04/07 07:12:22;;;;;;;8.88;6.20;;;2.20;32.40;;;;;;5068883;28;20242;-76
2021/04/07 07:14:49;;;;;;;7.55;6.00;;;2.30;8.20;;;;;;5074508;28;20199;-76
2021/04/07 07:17:31;;;;;;;10.70;6.25;;;2.40;11.50;;;;;;5067375;28;20211;-76
2021/04/07 07:19:58;;;;;;;10.18;5.93;;;2.40;14.10;;;;;;5070123;28;20310;-76
2021/04/07 07:22:26;;;;;;;8.05;5.80;;;2.60;3.10;;;;;;5077617;28;20654;-76
2021/04/07 07:25:00;;;;;;;9.13;6.50;;;2.60;1.00;;;;;;5069286;28;20179;-74
2021/04/07 07:27:37;;;;;;;10.02;6.65;;;2.60;1.00;;;;;;5070192;28;20216;-76
2021/04/07 07:30:05;;;;;;;9.48;6.75;;;2.70;1.00;;;;;;5069608;28;20184;-75
2021/04/07 07:32:33;;;;;;;17.42;5.65;;;2.70;1.00;;;;;;5069750;28;20184;-76
2021/04/07 07:35:05;;;;;;;11.65;6.10;;;2.70;1.00;;;;;;5070090;28;20189;-76
2021/04/07 07:37:31;;;;;;;11.60;6.90;;;2.70;1.00;;;;;;5069688;28;20199;-75
2021/04/07 07:39:56;;;;;;;11.07;6.20;;;2.70;1.00;;;;;;5069883;28;20191;-75
2021/04/07 07:42:23;;;;;;;9.40;6.43;;;2.80;1.00;;;;;;5070125;28;20184;-75
2021/04/07 07:44:49;;;;;;;9.88;6.90;;;2.90;1.00;;;;;;5068545;28;20605;-75
2021/04/07 07:47:21;;;;;;;9.90;6.67;;;2.90;1.00;;;;;;5069789;28;20212;-75
2021/04/07 07:50:01;;;;;;;10.90;6.18;;;3.20;1.00;;;;;;5069994;28;20190;-75
2021/04/07 07:52:35;;;;;;;8.77;6.20;;;3.40;1.00;;;;;;5070124;28;20209;-75
2021/04/07 07:55:13;;;;;;;13.10;6.22;;;3.50;1.00;;;;;;5069618;28;20212;-76
2021/04/07 07:57:38;;;;;;;7.80;5.63;;;3.40;1.00;;;;;;5069821;28;20275;-77
2021/04/07 08:00:09;;;;;;;11.70;7.47;;;3.30;99.90;;;;;;5076001;28;20176;-72
2021/04/07 08:02:37;;;;;;;12.40;6.90;;;3.20;99.90;;;;;;5078478;28;20789;-71
2021/04/07 08:05:14;;;;;;;10.40;7.47;;;3.10;1.00;;;;;;5069568;28;20205;-73
2021/04/07 08:07:40;;;;;;;15.95;8.45;;;3.00;99.90;;;;;;5069950;28;20200;-77
2021/04/07 08:10:06;;;;;;;14.40;8.83;;;2.80;1.00;;;;;;5075061;28;20188;-73
2021/04/07 08:12:32;;;;;;;11.57;8.45;;;2.80;1.00;;;;;;5079598;28;20297;-72
2021/04/07 08:14:59;;;;;;;15.07;8.13;;;2.70;1.00;;;;;;5063631;28;20546;-77
2021/04/07 08:17:25;;;;;;;11.60;7.50;;;2.80;1.00;;;;;;5053795;28;20208;-72
2021/04/07 08:19:52;;;;;;;9.77;6.80;;;2.80;1.00;;;;;;5053481;28;20258;-72
2021/04/07 08:22:18;;;;;;;11.45;7.80;;;2.80;1.00;;;;;;5055998;28;20181;-72
2021/04/07 08:24:45;;;;;;;10.63;7.53;;;2.90;1.00;;;;;;5049803;28;20188;-72
2021/04/07 08:27:12;;;;;;;12.23;7.20;;;3.00;1.00;;;;;;5052887;28;20646;-76
2021/04/07 08:29:38;;;;;;;8.70;6.30;;;3.20;1.00;;;;;;5068462;28;20164;-76
2021/04/07 08:32:05;;;;;;;10.40;6.95;;;3.30;99.90;;;;;;5080186;28;20660;-76
2021/04/07 08:34:31;;;;;;;9.18;6.55;;;3.60;99.90;;;;;;5072048;28;20765;-75
2021/04/07 08:36:56;;;;;;;13.83;6.93;;;3.80;99.90;;;;;;5073709;28;20224;-71
2021/04/07 08:39:24;;;;;;;8.20;6.37;;;4.10;99.90;;;;;;5068256;28;20910;-69
2021/04/07 08:41:49;;;;;;;9.10;6.10;;;4.30;99.90;;;;;;5067395;28;20247;-69
2021/04/07 08:44:19;;;;;;;9.90;7.17;;;4.50;1.00;;;;;;5068432;28;20177;-70
2021/04/07 08:46:50;;;;;;;11.30;7.95;;;4.60;94.00;;;;;;5068393;28;20178;-70
2021/04/07 08:49:34;;;;;;;9.30;7.53;;;4.50;99.90;;;;;;5067764;28;20184;-69
2021/04/07 08:52:22;;;;;;;10.57;7.28;;;4.50;99.90;;;;;;5072480;28;20181;-71
2021/04/07 08:54:58;;;;;;;9.40;7.65;;;4.40;99.90;;;;;;5067756;28;20175;-72
2021/04/07 08:57:33;;;;;;;6.57;5.65;;;4.40;99.90;;;;;;5068287;28;20254;-74
2021/04/07 09:00:20;;;;;;;9.48;6.82;;;4.40;99.90;;;;;;5065217;28;20177;-75
2021/04/07 09:03:07;;;;;;;8.77;7.10;;;4.40;99.90;;;;;;5067129;28;21001;-71
2021/04/07 09:05:36;;;;;;;9.82;6.30;;;4.60;99.90;;;;;;5058800;28;20284;-76
2021/04/07 09:08:02;;;;;;;7.95;6.20;;;4.70;99.90;;;;;;5039258;28;20181;-71
2021/04/07 09:10:43;;;;;;;10.38;6.50;;;4.60;99.90;;;;;;5067698;28;20982;-72
2021/04/07 09:13:11;;;;;;;8.90;6.20;;;4.60;99.90;;;;;;5039675;28;20185;-75
2021/04/07 09:15:50;;;;;;;7.63;6.00;;;4.60;99.90;;;;;;5071327;28;20181;-74
2021/04/07 09:18:17;;;;;;;9.85;7.38;;;5.00;99.90;;;;;;5069225;28;20197;-75
2021/04/07 09:20:44;;;;;;;8.27;7.00;;;5.10;99.90;;;;;;5068078;28;20166;-76
2021/04/07 09:23:39;;;;;;;9.07;6.07;;;5.70;99.90;;;;;;5063946;28;20187;-75
2021/04/07 09:26:13;;;;;;;8.52;5.50;;;6.80;98.40;;;;;;5053787;28;20263;-74
2021/04/07 09:28:48;;;;;;;6.70;5.93;;;7.40;92.20;;;;;;5058609;28;20269;-75
2021/04/07 09:31:21;;;;;;;7.45;6.07;;;7.50;92.30;;;;;;5057923;28;20541;-72
2021/04/07 09:33:49;;;;;;;5.57;5.10;;;7.50;90.90;;;;;;5057137;28;20202;-76
2021/04/07 09:36:18;;;;;;;6.55;5.72;;;7.30;85.00;;;;;;5059715;28;20173;-70
2021/04/07 09:38:51;;;;;;;7.75;6.50;;;6.70;87.10;;;;;;5069391;28;20298;-72
2021/04/07 09:41:29;;;;;;;9.10;6.05;;;6.50;91.60;;;;;;5057122;28;20186;-73
2021/04/07 09:43:55;;;;;;;6.25;5.65;;;6.50;91.30;;;;;;5070880;28;20171;-72
2021/04/07 09:46:21;;;;;;;6.32;5.68;;;6.20;87.40;;;;;;5064531;28;20188;-73
2021/04/07 09:49:03;;;;;;;7.10;6.00;;;6.10;90.10;;;;;;5070933;28;20278;-70
2021/04/07 09:51:32;;;;;;;6.20;5.43;;;6.00;90.50;;;;;;5072707;28;20573;-69
2021/04/07 09:54:08;;;;;;;6.28;5.68;;;5.90;88.60;;;;;;5072246;28;20204;-66
2021/04/07 09:56:45;;;;;;;6.63;5.75;;;6.00;85.40;;;;;;5073031;28;20212;-66
2021/04/07 09:59:11;;;;;;;5.20;4.70;;;5.70;81.30;;;;;;5071986;28;20295;-67
2021/04/07 10:01:40;;;;;;;6.13;4.50;;;5.70;82.90;;;;;;5056999;28;20759;-68
2021/04/07 10:04:06;;;;;;;6.50;5.05;;;5.90;77.20;;;;;;5093443;28;20172;-65
2021/04/07 10:06:32;;;;;;;6.72;5.10;;;5.90;77.80;;;;;;5093152;28;20181;-65
2021/04/07 10:08:59;;;;;;;6.07;5.30;;;5.80;79.70;;;;;;5093464;28;20161;-66
2021/04/07 10:11:25;;;;;;;5.80;5.20;;;5.70;80.00;;;;;;5082471;28;20844;-66
2021/04/07 10:13:51;;;;;;;5.30;4.80;;;5.60;84.70;;;;;;5072029;28;20260;-66
2021/04/07 10:16:16;;;;;;;6.07;5.03;;;5.70;81.60;;;;;;5071505;28;20687;-67
2021/04/07 10:18:45;;;;;;;6.20;5.30;;;5.60;81.80;;;;;;5071285;28;20268;-66
2021/04/07 10:21:16;;;;;;;6.00;5.40;;;5.50;85.30;;;;;;5070455;28;20177;-65
2021/04/07 10:23:42;;;;;;;6.20;5.60;;;5.50;85.00;;;;;;5084181;28;20179;-65
2021/04/07 10:26:08;;;;;;;5.90;5.35;;;5.60;87.60;;;;;;5082690;28;20173;-65
2021/04/07 10:28:35;;;;;;;6.53;5.57;;;6.10;89.30;;;;;;5071278;28;20610;-65
2021/04/07 10:31:06;;;;;;;6.57;5.75;;;6.30;88.30;;;;;;5059741;28;21235;-65
2021/04/07 10:33:32;;;;;;;7.38;6.10;;;6.50;83.40;;;;;;5070346;28;20523;-66
2021/04/07 10:35:59;;;;;;;6.93;6.33;;;6.50;77.70;;;;;;5070538;28;20186;-66
2021/04/07 10:38:29;;;;;;;9.38;6.70;;;6.10;79.70;;;;;;5069834;28;20201;-65
2021/04/07 10:41:00;;;;;;;7.25;6.05;;;5.90;81.70;;;;;;5070606;28;20213;-66
2021/04/07 10:43:32;;;;;;;6.20;5.70;;;5.80;85.20;;;;;;5070133;28;20180;-66
2021/04/07 10:46:05;;;;;;;7.15;5.93;;;5.80;81.60;;;;;;5051537;28;20182;-67
2021/04/07 10:48:31;;;;;;;6.88;5.35;;;6.20;79.40;;;;;;5069812;28;20182;-66
2021/04/07 10:50:58;;;;;;;5.07;4.57;;;6.70;81.90;;;;;;5070324;28;20917;-66
2021/04/07 10:53:28;;;;;;;6.80;5.07;;;6.90;72.60;;;;;;5070693;28;20230;-66
2021/04/07 10:55:53;;;;;;;5.30;4.30;;;7.00;74.60;;;;;;5070042;28;20694;-66
2021/04/07 10:58:26;;;;;;;4.20;3.80;;;7.00;68.80;;;;;;5071107;28;20194;-66
2021/04/07 11:00:52;;;;;;;4.00;3.38;;;6.50;65.70;;;;;;5068706;28;20198;-66
2021/04/07 11:03:29;;;;;;;3.50;3.20;;;6.50;72.40;;;;;;5069036;28;20223;-67
2021/04/07 11:05:55;;;;;;;6.65;3.92;;;6.50;69.30;;;;;;5052198;28;20178;-67
2021/04/07 11:08:20;;;;;;;3.93;3.53;;;6.50;67.80;;;;;;5070421;28;20268;-67
2021/04/07 11:10:48;;;;;;;4.23;3.83;;;6.40;68.60;;;;;;5084326;28;20639;-66
2021/04/07 11:13:15;;;;;;;5.85;4.18;;;6.30;68.90;;;;;;5090560;28;20174;-66
2021/04/07 11:15:42;;;;;;;5.03;4.10;;;6.50;74.00;;;;;;5071484;28;20193;-66
2021/04/07 11:18:08;;;;;;;4.35;3.50;;;7.30;70.20;;;;;;5067713;28;20209;-65
2021/04/07 11:20:35;;;;;;;4.30;3.60;;;7.70;59.60;;;;;;5079754;28;20190;-72
2021/04/07 11:23:01;;;;;;;5.27;3.63;;;7.60;58.30;;;;;;5079633;28;20168;-71
2021/04/07 11:25:27;;;;;;;3.43;3.20;;;8.10;59.60;;;;;;5071386;28;20434;-77
2021/04/07 11:27:57;;;;;;;5.23;3.87;;;8.50;57.10;;;;;;5082066;28;20529;-74
2021/04/07 11:30:23;;;;;;;4.37;3.57;;;8.30;55.50;;;;;;5066034;28;20422;-71
2021/04/07 11:32:53;;;;;;;4.03;3.60;;;8.10;57.80;;;;;;5065238;28;20792;-70
2021/04/07 11:35:25;;;;;;;3.90;3.60;;;8.00;54.70;;;;;;5064975;28;20442;-76
2021/04/07 11:37:54;;;;;;;3.83;3.33;;;7.90;55.00;;;;;;5061242;28;20465;-75
2021/04/07 11:43:09;;;;;;;2.58;2.38;;;7.20;57.90;;;;;;5064121;28;20168;-69
2021/04/07 11:45:35;;;;;;;3.95;3.65;;;7.40;59.00;;;;;;5068746;28;20217;-77
2021/04/07 11:48:01;;;;;;;5.47;3.60;;;7.60;60.40;;;;;;5059444;28;20207;-71
2021/04/07 11:50:27;;;;;;;4.30;3.90;;;7.60;57.60;;;;;;5060156;28;20419;-70
2021/04/07 11:52:52;;;;;;;4.30;3.77;;;7.40;57.90;;;;;;5058690;28;20190;-77
2021/04/07 11:55:19;;;;;;;4.03;3.67;;;8.10;54.50;;;;;;5064622;28;20185;-71
2021/04/07 11:57:45;;;;;;;5.73;3.70;;;8.70;51.60;;;;;;5067534;28;20956;-73
2021/04/07 12:00:13;;;;;;;4.37;3.97;;;8.50;50.80;;;;;;5063799;28;20467;-72
2021/04/07 12:02:42;;;;;;;4.95;4.30;;;8.20;52.70;;;;;;5069923;28;21261;-73
2021/04/07 12:05:10;;;;;;;4.00;3.70;;;8.10;53.80;;;;;;5070250;28;20525;-68
2021/04/07 12:07:35;;;;;;;4.67;3.97;;;8.30;53.40;;;;;;5069353;28;20417;-71
2021/04/07 12:10:02;;;;;;;4.13;3.80;;;8.80;53.50;;;;;;5069779;28;20483;-72
2021/04/07 12:12:28;;;;;;;4.27;3.87;;;9.30;51.00;;;;;;5069304;28;20247;-69
2021/04/07 12:14:54;;;;;;;4.23;3.90;;;9.20;49.30;;;;;;5071352;28;20430;-69
2021/04/07 12:17:22;;;;;;;4.73;3.80;;;8.70;49.50;;;;;;5071818;28;20639;-69
2021/04/07 12:19:47;;;;;;;4.40;4.10;;;8.40;51.30;;;;;;5067373;28;20183;-71
2021/04/07 12:22:14;;;;;;;4.10;3.80;;;8.50;52.30;;;;;;5073834;28;20426;-72
2021/04/07 12:24:40;;;;;;;3.70;3.50;;;9.40;52.00;;;;;;5069586;28;20180;-75
2021/04/07 12:27:06;;;;;;;4.00;3.70;;;10.10;48.70;;;;;;5069482;28;20428;-75
2021/04/07 12:29:31;;;;;;;3.70;3.40;;;10.60;45.60;;;;;;5069326;28;20188;-72
2021/04/07 12:31:57;;;;;;;5.23;3.77;;;10.50;44.80;;;;;;5069182;28;20188;-70
2021/04/07 12:34:23;;;;;;;4.37;3.97;;;9.20;45.90;;;;;;5069918;28;20184;-68
2021/04/07 12:36:49;;;;;;;3.70;3.40;;;8.70;48.00;;;;;;5069502;28;20805;-70
2021/04/07 12:39:15;;;;;;;6.87;4.10;;;8.30;48.50;;;;;;5069128;28;20452;-77
2021/04/07 12:41:57;;;;;;;4.30;4.00;;;7.90;50.00;;;;;;5069573;28;20541;-77
2021/04/07 12:44:23;;;;;;;3.87;3.60;;;7.90;52.20;;;;;;5069042;28;20274;-71
2021/04/07 12:46:49;;;;;;;4.13;3.73;;;8.40;49.70;;;;;;5069100;28;20644;-74
2021/04/07 12:49:15;;;;;;;5.20;4.00;;;8.40;48.80;;;;;;5069042;28;20790;-73
2021/04/07 12:51:41;;;;;;;4.10;3.80;;;8.30;47.20;;;;;;5069153;28;20262;-79
2021/04/07 12:54:10;;;;;;;4.13;3.83;;;8.10;48.40;;;;;;5070324;28;20196;-74
2021/04/07 12:56:36;;;;;;;3.77;3.47;;;8.10;49.10;;;;;;5069922;28;20422;-70
2021/04/07 12:59:02;;;;;;;3.60;3.33;;;8.20;51.40;;;;;;5069470;28;21409;-76
2021/04/07 13:01:27;;;;;;;3.97;3.60;;;9.10;50.10;;;;;;5068709;28;20435;-76
2021/04/07 13:03:54;;;;;;;4.40;4.00;;;9.30;47.60;;;;;;5066470;28;20212;-70